createdAt,value
2022-12-23T00:00:20.147Z,1.00
2022-12-23T00:02:48.384Z,1.00
2022-12-23T00:05:16.687Z,1.00
2022-12-23T00:07:45.489Z,1.00
2022-12-23T00:10:13.886Z,1.00
2022-12-23T00:12:59.199Z,1.00
2022-12-23T00:15:28.718Z,1.00
2022-12-23T00:17:56.984Z,1.00
2022-12-23T00:20:25.217Z,1.00
2022-12-23T00:23:07.240Z,1.00
2022-12-23T00:25:44.923Z,1.00
2022-12-23T00:28:15.696Z,1.00
2022-12-23T00:30:50.383Z,1.00
2022-12-23T00:33:20.378Z,1.00
2022-12-23T00:35:48.708Z,1.00
2022-12-23T00:38:17.598Z,1.00
2022-12-23T00:41:03.068Z,1.00
2022-12-23T00:43:31.130Z,1.00
2022-12-23T00:46:00.679Z,1.00
2022-12-23T00:48:46.199Z,1.00
2022-12-23T00:51:14.318Z,1.00
2022-12-23T00:53:42.466Z,1.00
2022-12-23T00:56:10.629Z,1.00
2022-12-23T00:58:38.735Z,1.00
2022-12-23T01:01:25.826Z,1.00
2022-12-23T01:04:22.881Z,1.00
2022-12-23T01:06:50.949Z,1.00
2022-12-23T01:09:19.003Z,1.00
2022-12-23T01:11:47.113Z,1.00
2022-12-23T01:14:15.220Z,1.00
2022-12-23T01:16:45.839Z,1.00
2022-12-23T01:19:14.039Z,1.00
2022-12-23T01:21:42.195Z,1.00
2022-12-23T01:24:10.365Z,1.00
2022-12-23T01:26:38.505Z,1.00
2022-12-23T01:29:06.616Z,1.00
2022-12-23T01:31:34.716Z,1.00
2022-12-23T01:34:04.278Z,1.00
2022-12-23T01:36:32.558Z,1.00
2022-12-23T01:39:00.621Z,1.00
2022-12-23T01:41:56.961Z,1.00
2022-12-23T01:44:50.855Z,1.00
2022-12-23T01:47:24.966Z,1.00
2022-12-23T01:49:57.727Z,1.00
2022-12-23T01:52:26.389Z,1.00
2022-12-23T01:54:55.524Z,1.00
2022-12-23T01:57:24.846Z,1.00
2022-12-23T02:00:11.068Z,1.00
2022-12-23T02:02:58.249Z,1.00
2022-12-23T02:05:28.123Z,1.00
2022-12-23T02:08:14.417Z,1.00
2022-12-23T02:11:02.263Z,1.00
2022-12-23T02:13:38.080Z,1.00
2022-12-23T02:16:18.539Z,1.00
2022-12-23T02:19:01.911Z,1.00
2022-12-23T02:21:50.057Z,1.00
2022-12-23T02:24:57.217Z,1.00
2022-12-23T02:27:29.736Z,1.00
2022-12-23T02:30:43.541Z,1.00
2022-12-23T02:33:35.667Z,1.00
2022-12-23T02:36:18.151Z,1.00
2022-12-23T02:38:52.487Z,1.00
2022-12-23T02:41:29.508Z,1.00
2022-12-23T02:44:01.356Z,1.00
2022-12-23T02:46:34.922Z,1.00
2022-12-23T02:49:09.576Z,1.00
2022-12-23T02:51:41.633Z,1.00
2022-12-23T02:54:14.160Z,1.00
2022-12-23T02:56:46.192Z,1.00
2022-12-23T02:59:20.818Z,1.00
2022-12-23T03:01:52.986Z,1.00
2022-12-23T03:04:21.294Z,1.00
2022-12-23T03:06:53.359Z,1.00
2022-12-23T03:09:29.912Z,1.00
2022-12-23T03:12:05.693Z,1.00
2022-12-23T03:14:51.469Z,1.00
2022-12-23T03:17:37.266Z,1.00
2022-12-23T03:20:14.717Z,1.00
2022-12-23T03:22:49.810Z,1.00
2022-12-23T03:25:24.410Z,1.00
2022-12-23T03:27:58.376Z,1.00
2022-12-23T03:30:27.229Z,1.00
2022-12-23T03:33:00.636Z,1.00
2022-12-23T03:35:34.529Z,1.00
2022-12-23T03:38:05.068Z,1.00
2022-12-23T03:40:37.295Z,1.00
2022-12-23T03:43:09.276Z,1.00
2022-12-23T03:45:42.437Z,1.00
2022-12-23T03:48:18.226Z,1.00
2022-12-23T03:50:49.866Z,1.00
2022-12-23T03:53:22.933Z,1.00
2022-12-23T03:55:56.256Z,1.00
2022-12-23T03:58:35.135Z,1.00
2022-12-23T04:01:18.392Z,1.00
2022-12-23T04:03:57.475Z,1.00
2022-12-23T04:06:28.421Z,1.00
2022-12-23T04:08:58.085Z,1.00
2022-12-23T04:11:26.556Z,1.00
2022-12-23T04:14:18.456Z,1.00
2022-12-23T04:17:06.559Z,1.00
2022-12-23T04:19:56.693Z,1.00
2022-12-23T04:22:45.235Z,1.00
2022-12-23T04:25:33.377Z,1.00
2022-12-23T04:28:21.574Z,1.00
2022-12-23T04:31:09.779Z,1.00
2022-12-23T04:33:41.870Z,1.00
2022-12-23T04:36:31.326Z,1.00
2022-12-23T04:39:19.397Z,1.00
2022-12-23T04:41:47.427Z,1.00
2022-12-23T04:44:15.422Z,1.00
2022-12-23T04:46:43.639Z,1.00
2022-12-23T04:49:11.748Z,1.00
2022-12-23T04:51:41.223Z,1.00
2022-12-23T04:54:09.150Z,1.00
2022-12-23T04:56:37.175Z,1.00
2022-12-23T04:59:05.110Z,1.00
2022-12-23T05:01:33.104Z,1.00
2022-12-23T05:04:01.144Z,1.00
2022-12-23T05:06:29.046Z,1.00
2022-12-23T05:08:58.372Z,1.00
2022-12-23T05:11:26.487Z,1.00
2022-12-23T05:13:54.460Z,1.00
2022-12-23T05:16:22.515Z,1.00
2022-12-23T05:18:50.445Z,1.00
2022-12-23T05:21:18.556Z,1.00
2022-12-23T05:23:46.448Z,1.00
2022-12-23T05:26:15.824Z,99.90
2022-12-23T05:28:45.546Z,1.00
2022-12-23T05:31:14.808Z,1.00
2022-12-23T05:33:42.892Z,1.00
2022-12-23T05:36:11.996Z,1.00
2022-12-23T05:38:40.148Z,1.00
2022-12-23T05:41:08.554Z,33.50
2022-12-23T05:43:37.987Z,99.90
2022-12-23T05:46:06.301Z,99.90
2022-12-23T05:48:34.521Z,99.90
2022-12-23T05:51:02.521Z,99.90
2022-12-23T05:53:30.473Z,99.90
2022-12-23T05:55:58.597Z,99.90
2022-12-23T05:58:28.152Z,99.90
2022-12-23T06:00:57.539Z,99.90
2022-12-23T06:03:25.953Z,99.90
2022-12-23T06:05:54.577Z,1.00
2022-12-23T06:08:22.853Z,1.00
2022-12-23T06:10:50.966Z,1.00
2022-12-23T06:13:19.190Z,1.00
2022-12-23T06:15:48.595Z,1.00
2022-12-23T06:18:18.486Z,1.00
2022-12-23T06:20:47.933Z,1.00
2022-12-23T06:23:16.084Z,1.00
2022-12-23T06:25:44.288Z,1.00
2022-12-23T06:28:12.405Z,1.00
2022-12-23T06:30:40.558Z,14.90
2022-12-23T06:33:08.725Z,99.90
2022-12-23T06:35:38.314Z,99.90
2022-12-23T06:38:11.658Z,99.90
2022-12-23T06:40:40.350Z,99.90
2022-12-23T06:43:08.461Z,99.90
2022-12-23T06:45:36.613Z,99.90
2022-12-23T06:48:05.106Z,99.90
2022-12-23T06:50:33.260Z,99.90
2022-12-23T06:53:02.781Z,1.00
2022-12-23T06:55:30.881Z,1.00
2022-12-23T06:57:59.036Z,1.00
2022-12-23T07:00:27.195Z,99.90
2022-12-23T07:02:55.621Z,99.90
2022-12-23T07:05:23.931Z,99.90
2022-12-23T07:07:52.042Z,99.90
2022-12-23T07:10:21.602Z,99.90
2022-12-23T07:12:51.007Z,1.00
2022-12-23T07:15:19.451Z,1.00
2022-12-23T07:17:47.586Z,1.00
2022-12-23T07:20:15.770Z,99.90
2022-12-23T07:22:43.915Z,99.90
2022-12-23T07:25:12.005Z,1.00
2022-12-23T07:27:41.521Z,1.00
2022-12-23T07:30:10.720Z,1.00
2022-12-23T07:32:38.839Z,1.00
2022-12-23T07:35:07.842Z,1.00
2022-12-23T07:37:35.948Z,1.00
2022-12-23T07:40:08.591Z,1.00
2022-12-23T07:42:46.458Z,1.00
2022-12-23T07:45:16.855Z,1.00
2022-12-23T07:47:45.109Z,1.00
2022-12-23T07:50:13.826Z,1.00
2022-12-23T07:52:41.971Z,1.00
2022-12-23T07:55:10.558Z,1.00
2022-12-23T07:57:39.973Z,1.00
2022-12-23T08:00:09.845Z,1.00
2022-12-23T08:02:39.539Z,1.00
2022-12-23T08:05:09.090Z,1.00
2022-12-23T08:07:37.790Z,1.00
2022-12-23T08:10:06.982Z,1.00
2022-12-23T08:12:35.864Z,1.00
2022-12-23T08:15:04.165Z,99.90
2022-12-23T08:17:32.485Z,99.90
2022-12-23T08:20:02.025Z,99.90
2022-12-23T08:22:32.356Z,99.90
2022-12-23T08:25:00.625Z,99.90
2022-12-23T08:27:28.827Z,99.90
2022-12-23T08:29:57.068Z,99.90
2022-12-23T08:32:28.112Z,99.90
2022-12-23T08:34:58.001Z,99.90
2022-12-23T08:37:27.615Z,99.90
2022-12-23T08:39:55.776Z,99.90
2022-12-23T08:42:23.944Z,99.90
2022-12-23T08:44:52.101Z,99.90
2022-12-23T08:47:20.244Z,98.30
2022-12-23T08:49:49.609Z,38.30
2022-12-23T08:52:17.760Z,1.00
2022-12-23T08:54:47.410Z,1.00
2022-12-23T08:57:15.523Z,1.00
2022-12-23T08:59:43.663Z,1.00
2022-12-23T09:02:12.808Z,99.90
2022-12-23T09:04:41.073Z,99.90
2022-12-23T09:07:09.170Z,99.90
2022-12-23T09:09:38.772Z,99.90
2022-12-23T09:12:08.581Z,23.80
2022-12-23T09:14:36.799Z,1.00
2022-12-23T09:17:05.298Z,1.00
2022-12-23T09:19:33.605Z,1.00
2022-12-23T09:22:01.864Z,1.00
2022-12-23T09:24:30.042Z,1.00
2022-12-23T09:26:58.204Z,99.90
2022-12-23T09:29:27.749Z,99.90
2022-12-23T09:31:55.997Z,99.90
2022-12-23T09:34:24.190Z,99.90
2022-12-23T09:36:55.473Z,99.90
2022-12-23T09:39:24.360Z,99.90
2022-12-23T09:42:06.366Z,99.90
2022-12-23T09:44:57.315Z,88.80
2022-12-23T09:47:27.986Z,27.50
2022-12-23T09:50:00.673Z,1.00
2022-12-23T09:52:37.574Z,1.00
2022-12-23T09:55:09.955Z,1.00
2022-12-23T09:57:47.129Z,1.00
2022-12-23T10:00:19.066Z,1.00
2022-12-23T10:03:02.355Z,1.00
2022-12-23T10:05:40.646Z,99.90
2022-12-23T10:08:13.771Z,99.90
2022-12-23T10:10:46.310Z,99.90
2022-12-23T10:13:25.078Z,99.90
2022-12-23T10:15:57.847Z,99.90
2022-12-23T10:18:41.238Z,99.90
2022-12-23T10:21:15.562Z,99.90
2022-12-23T10:23:48.144Z,99.90
2022-12-23T10:26:22.861Z,99.90
2022-12-23T10:28:55.340Z,99.90
2022-12-23T10:31:41.467Z,99.90
2022-12-23T10:34:18.670Z,92.70
2022-12-23T10:36:54.727Z,34.00
2022-12-23T10:39:31.330Z,24.40
2022-12-23T10:42:09.629Z,69.50
2022-12-23T10:45:03.455Z,99.90
2022-12-23T10:47:47.827Z,95.50
2022-12-23T10:50:30.898Z,1.00
2022-12-23T10:53:03.215Z,1.00
2022-12-23T10:55:35.611Z,1.00
2022-12-23T10:58:08.682Z,1.00
2022-12-23T11:00:42.023Z,1.00
2022-12-23T11:03:19.326Z,1.00
2022-12-23T11:05:50.043Z,1.00
2022-12-23T11:08:19.507Z,1.00
2022-12-23T11:10:48.367Z,1.00
2022-12-23T11:13:26.337Z,1.00
2022-12-23T11:15:54.787Z,1.00
2022-12-23T13:10:36.559Z,1.00
2022-12-23T13:16:14.196Z,1.00
2022-12-23T13:22:01.674Z,1.00
2022-12-23T13:27:29.538Z,1.00
2022-12-23T13:30:21.356Z,1.00
2022-12-23T13:55:48.258Z,1.00
2022-12-23T13:58:19.312Z,1.00
2022-12-23T14:00:47.611Z,1.00
2022-12-23T14:03:24.836Z,1.00
2022-12-23T14:05:54.246Z,1.00
2022-12-23T14:08:26.846Z,1.00
2022-12-23T14:11:01.360Z,1.00
2022-12-23T14:13:32.410Z,1.00
2022-12-23T14:16:26.225Z,1.00
2022-12-23T14:19:20.118Z,1.00
2022-12-23T14:21:58.839Z,1.00
2022-12-23T14:24:44.670Z,1.00
2022-12-23T14:27:32.030Z,1.00
2022-12-23T14:30:10.752Z,1.00
2022-12-23T14:32:49.092Z,1.00
2022-12-23T14:35:24.736Z,1.00
2022-12-23T14:38:23.549Z,1.00
2022-12-23T14:41:15.107Z,1.00
2022-12-23T14:43:58.244Z,1.00
2022-12-23T14:47:00.393Z,1.00
2022-12-23T14:49:41.540Z,1.00
2022-12-23T14:52:49.275Z,1.00
2022-12-23T14:55:47.103Z,1.00
2022-12-23T14:58:59.177Z,8.30
2022-12-23T15:01:33.215Z,25.00
2022-12-23T15:04:08.892Z,36.90
2022-12-23T15:06:40.531Z,53.10
2022-12-23T15:09:10.648Z,71.00
2022-12-23T15:11:41.161Z,78.50
2022-12-23T15:14:17.519Z,98.50
2022-12-23T15:16:46.511Z,96.60
2022-12-23T15:19:23.680Z,99.90
2022-12-23T15:22:01.985Z,99.90
2022-12-23T15:24:33.728Z,99.90
2022-12-23T15:27:26.023Z,99.90
2022-12-23T15:29:53.761Z,99.90
2022-12-23T15:32:24.295Z,99.90
2022-12-23T15:34:53.865Z,99.90
2022-12-23T15:37:28.548Z,99.90
2022-12-23T15:40:06.541Z,99.90
2022-12-23T15:42:39.902Z,99.90
2022-12-23T15:45:30.911Z,99.90
2022-12-23T15:47:59.006Z,99.90
2022-12-23T15:50:28.392Z,80.20
2022-12-23T15:52:59.043Z,80.50
2022-12-23T15:55:32.132Z,70.10
2022-12-23T15:58:01.777Z,53.20
2022-12-23T16:00:39.231Z,32.70
2022-12-23T16:03:13.799Z,29.90
2022-12-23T16:05:44.912Z,27.50
2022-12-23T16:08:29.094Z,23.90
2022-12-23T16:11:06.755Z,18.80
2022-12-23T16:13:35.165Z,19.60
2022-12-23T16:16:35.309Z,25.30
2022-12-23T16:19:03.721Z,41.70
2022-12-23T16:21:35.175Z,38.80
2022-12-23T16:24:08.334Z,42.00
2022-12-23T16:26:41.818Z,22.70
2022-12-23T16:29:11.454Z,8.00
2022-12-23T16:31:48.214Z,1.00
2022-12-23T16:34:20.355Z,3.80
2022-12-23T16:36:48.543Z,1.00
2022-12-23T16:39:21.671Z,1.00
2022-12-23T16:41:50.629Z,1.00
2022-12-23T16:44:18.855Z,1.00
2022-12-23T16:46:50.679Z,1.00
2022-12-23T16:49:20.548Z,1.00
2022-12-23T16:51:49.023Z,1.00
2022-12-23T16:54:19.220Z,1.00
2022-12-23T16:56:47.888Z,1.00
2022-12-23T16:59:16.319Z,1.00
2022-12-23T17:01:47.061Z,1.00
2022-12-23T17:04:16.965Z,1.00
2022-12-23T17:06:46.622Z,1.00
2022-12-23T17:09:15.047Z,1.00
2022-12-23T17:11:45.220Z,1.00
2022-12-23T17:14:17.924Z,1.00
2022-12-23T17:16:46.949Z,1.00
2022-12-23T17:19:19.254Z,1.00
2022-12-23T17:21:56.868Z,1.00
2022-12-23T17:24:26.530Z,1.00
2022-12-23T17:26:55.320Z,1.00
2022-12-23T17:29:23.886Z,1.00
2022-12-23T17:31:52.700Z,1.00
2022-12-23T17:34:24.008Z,1.00
2022-12-23T17:36:53.008Z,1.00
2022-12-23T17:39:21.816Z,1.00
2022-12-23T17:41:50.137Z,1.00
2022-12-23T17:44:19.136Z,1.00
2022-12-23T17:46:47.787Z,1.00
2022-12-23T17:49:16.033Z,1.00
2022-12-23T17:51:45.459Z,1.00
2022-12-23T17:54:23.168Z,1.00
2022-12-23T17:56:52.057Z,1.00
2022-12-23T17:59:21.072Z,1.00
2022-12-23T18:01:49.048Z,1.00
2022-12-23T18:04:17.027Z,1.00
2022-12-23T18:06:46.301Z,1.00
2022-12-23T18:09:14.213Z,1.00
2022-12-23T18:11:45.753Z,1.00
2022-12-23T18:14:17.590Z,1.00
2022-12-23T18:16:46.322Z,1.00
2022-12-23T18:19:18.141Z,1.00
2022-12-23T18:21:47.727Z,1.00
2022-12-23T18:24:15.834Z,1.00
2022-12-23T18:26:43.996Z,1.00
2022-12-23T18:29:12.028Z,1.00
2022-12-23T18:31:50.986Z,1.00
2022-12-23T18:34:19.756Z,1.00
2022-12-23T18:36:51.736Z,1.00
2022-12-23T18:39:20.153Z,1.00
2022-12-23T18:41:48.237Z,1.00
2022-12-23T18:44:19.220Z,1.00
2022-12-23T18:46:47.349Z,1.00
2022-12-23T18:49:15.423Z,1.00
2022-12-23T18:51:43.442Z,1.00
2022-12-23T18:54:15.129Z,1.00
2022-12-23T18:56:43.247Z,1.00
2022-12-23T18:59:17.199Z,1.00
2022-12-23T19:01:45.455Z,1.00
2022-12-23T19:04:13.841Z,1.00
2022-12-23T19:06:42.135Z,1.00
2022-12-23T19:09:18.108Z,1.00
2022-12-23T19:11:48.815Z,1.00
2022-12-23T19:14:16.888Z,1.00
2022-12-23T19:16:51.272Z,1.00
2022-12-23T19:19:20.481Z,1.00
2022-12-23T19:21:48.635Z,1.00
2022-12-23T19:24:18.220Z,1.00
2022-12-23T19:26:46.190Z,1.00
2022-12-23T19:29:14.279Z,1.00
2022-12-23T19:31:42.467Z,1.00
2022-12-23T19:34:15.004Z,1.00
2022-12-23T19:36:44.265Z,1.00
2022-12-23T19:39:16.090Z,1.00
2022-12-23T19:41:46.008Z,1.00
2022-12-23T19:44:14.140Z,1.00
2022-12-23T19:46:42.644Z,1.00
2022-12-23T19:49:17.559Z,1.00
2022-12-23T19:51:47.949Z,1.00
2022-12-23T19:54:15.911Z,1.00
2022-12-23T19:56:45.555Z,1.00
2022-12-23T19:59:13.721Z,1.00
2022-12-23T20:01:41.919Z,1.00
2022-12-23T20:04:11.107Z,1.00
2022-12-23T20:06:39.810Z,1.00
2022-12-23T20:09:08.895Z,1.00
2022-12-23T20:11:38.821Z,1.00
2022-12-23T20:14:09.183Z,1.00
2022-12-23T20:16:38.430Z,99.90
2022-12-23T20:19:06.813Z,99.90
2022-12-23T20:21:35.486Z,99.90
2022-12-23T20:24:03.472Z,99.90
2022-12-23T20:26:31.618Z,99.90
2022-12-23T20:29:00.109Z,99.90
2022-12-23T20:31:31.284Z,99.90
2022-12-23T20:33:59.735Z,99.90
2022-12-23T20:36:29.182Z,99.90
2022-12-23T20:38:57.758Z,99.90
2022-12-23T20:41:27.625Z,99.90
2022-12-23T20:46:45.122Z,99.90
2022-12-23T20:49:13.206Z,99.90
2022-12-23T20:51:41.241Z,99.90
2022-12-23T20:54:09.301Z,99.90
2022-12-23T20:56:37.326Z,99.90
2022-12-23T20:59:05.455Z,99.90
2022-12-23T21:01:35.268Z,99.90
2022-12-23T21:04:06.583Z,99.90
2022-12-23T21:06:35.332Z,99.90
2022-12-23T21:09:05.053Z,99.90
2022-12-23T21:11:36.282Z,99.90
2022-12-23T21:14:07.138Z,99.90
2022-12-23T21:16:36.605Z,99.90
2022-12-23T21:19:08.382Z,99.90
2022-12-23T21:21:37.862Z,99.90
2022-12-23T21:24:06.468Z,99.90
2022-12-23T21:26:35.813Z,99.90
2022-12-23T21:29:06.337Z,99.90
2022-12-23T21:31:36.639Z,99.90
2022-12-23T21:34:06.490Z,99.90
2022-12-23T21:36:37.411Z,99.90
2022-12-23T21:39:06.666Z,99.90
2022-12-23T21:41:37.160Z,99.90
2022-12-23T21:44:05.834Z,99.90
2022-12-23T21:46:33.985Z,99.90
2022-12-23T21:49:02.221Z,99.90
2022-12-23T21:51:39.587Z,99.90
2022-12-23T21:54:09.624Z,99.90
2022-12-23T21:56:38.167Z,99.90
2022-12-23T21:59:07.895Z,99.90
2022-12-23T22:01:35.892Z,99.90
2022-12-23T22:04:04.318Z,99.90
2022-12-23T22:06:36.687Z,99.90
2022-12-23T22:09:06.179Z,99.90
2022-12-23T22:11:36.468Z,99.90
2022-12-23T22:14:06.314Z,99.90
2022-12-23T22:16:35.430Z,99.90
2022-12-23T22:19:05.062Z,99.90
2022-12-23T22:21:35.369Z,99.90
2022-12-23T22:24:04.158Z,99.90
2022-12-23T22:26:33.955Z,99.90
2022-12-23T22:29:04.829Z,99.90
2022-12-23T22:31:36.501Z,99.90
2022-12-23T22:34:04.831Z,99.90
2022-12-23T22:36:34.873Z,99.90
2022-12-23T22:39:03.574Z,99.90
2022-12-23T22:41:32.057Z,99.90
2022-12-23T22:44:00.542Z,99.90
2022-12-23T22:46:29.368Z,99.90
2022-12-23T22:48:58.864Z,99.90
2022-12-23T22:51:29.580Z,99.90
2022-12-23T22:53:59.740Z,99.90
2022-12-23T22:56:28.177Z,99.90
2022-12-23T22:58:56.348Z,99.90
2022-12-23T23:01:26.779Z,99.90
2022-12-23T23:03:57.727Z,99.90
2022-12-23T23:06:26.766Z,99.90
2022-12-23T23:08:55.735Z,99.90
2022-12-23T23:11:26.140Z,99.90
2022-12-23T23:13:55.057Z,99.90
2022-12-23T23:16:24.314Z,99.90
2022-12-23T23:18:53.403Z,99.90
2022-12-23T23:21:22.028Z,99.90
2022-12-23T23:23:50.219Z,99.90
2022-12-23T23:26:19.073Z,99.90
2022-12-23T23:28:49.205Z,99.90
2022-12-23T23:31:41.032Z,99.90
2022-12-23T23:34:05.208Z,99.90
2022-12-23T23:36:33.175Z,99.90
2022-12-23T23:39:01.209Z,99.90
2022-12-23T23:41:29.199Z,99.90
2022-12-23T23:43:58.619Z,99.90
2022-12-23T23:46:26.690Z,99.90
2022-12-23T23:48:54.736Z,99.90
2022-12-23T23:51:22.731Z,99.90
2022-12-23T23:53:50.763Z,99.90
2022-12-23T23:56:24.814Z,99.90
2022-12-23T23:58:53.587Z,99.90
